Bauang Weathercam more information Bauang Weathercam


Thunder radar more information blitzortung!


Rain radar more information rain snow radar



Nearby METAR Reports

   
RPLC - Angeles/Pampanga, Philippines
Distance from station: S 165 km
Updated: 20-05-2019 09:00
Mostly Cloudy  
Mostly Cloudy  
   Wind: SW 1 m/s
Wind: SW 1 m/s
Temperature: 30°C
Heat Index: 37°C
Dew Point: 26°C
Humidity: 79%
Barometer: 1011 hPa
Clouds: Mostly Cloudy
Visibility: 8 km
Cloud details: Partly Cloudy 609.6 m,
Mostly Cloudy 9144 m
RPLC 200100Z 22002KT 8000 SCT020 BKN300 30/26 Q1011 NOSIG RMK A2985
RPLI - Laoag Intl(Ph-Ar, Philippines
Distance from station: N 172 km
Updated: 20-05-2019 09:00
Partly Cloudy  
Partly Cloudy  
   Wind: SW 3.6 m/s
Wind: SW 3.6 m/s
Temperature: 31°C
Heat Index: 39°C
Dew Point: 26°C
Humidity: 75%
Barometer: 1010 hPa
Clouds: Partly Cloudy
Visibility: More than 10 km
Cloud details: Few Clouds 518.2 m,
Partly Cloudy 548.6 m
RPLI 200100Z 23007KT 190V260 9999 FEW017CB SCT018 31/26 Q1010 NOSIG RMK A2983 CB NW
RPLB - Olongapo/Subic, Philippines
Distance from station: S 203 km
Updated: 20-05-2019 09:00
Mostly Cloudy  
Mostly Cloudy  
   Wind: NNW 2.1 m/s
Wind: NNW 2.1 m/s
Temperature: 31°C
Heat Index: 39°C
Dew Point: 26°C
Humidity: 75%
Barometer: 1011 hPa
Clouds: Mostly Cloudy
Visibility: More than 10 km
Cloud details: Few Clouds 548.6 m,
Few Clouds 609.6 m,
Mostly Cloudy 9144 m
RPLB 200100Z 33004KT 310V010 9999 FEW018TCU FEW020 BKN300 31/26 Q1011 RMK A2985 TCU WNW
RPLL - Ninoy Aquino Int, Philippines
Distance from station: SSE 246 km
Updated: 20-05-2019 09:00
Partly Cloudy  
Partly Cloudy  
   Wind: West 4.1 m/s
Wind: West 4.1 m/s
Temperature: 33°C
Heat Index: 42°C
Dew Point: 26°C
Humidity: 67%
Barometer: 1010 hPa
Clouds: Partly Cloudy
Cloud details: Partly Cloudy 670.6 m
RPLL 200100Z 26008KT 220V320 SCT022CB 33/26 Q1010 NOSIG RMK A2983 CB S-WSW N
RPMR - Romblon/Tablas I, Philippines
Distance from station: SSE 498 km
Updated: 20-05-2019 09:00
Partly Cloudy  
Partly Cloudy  
   Wind: NNE 3.1 m/s
Wind: NNE 3.1 m/s
Temperature: 31°C
Heat Index: 38°C
Dew Point: 25°C
Humidity: 70%
Barometer: 1014 hPa
Clouds: Partly Cloudy
Visibility: More than 10 km
Cloud details: Few Clouds 609.6 m,
Partly Cloudy 2438.4 m
RPMR 200100Z 02006KT 9999 FEW020 SCT080 31/25 Q1014 NOSIG RMK A2994
RPVM - Mactan-Cebu, Philippines
Distance from station: NNE 1 km
Updated: 20-05-2019 09:00
Partly Cloudy  
Partly Cloudy  
   Wind: South 3.1 m/s
Wind: South 3.1 m/s
Temperature: 31°C
Heat Index: 38°C
Dew Point: 25°C
Humidity: 70%
Barometer: 1012 hPa
Clouds: Partly Cloudy
Visibility: More than 10 km
Cloud details: Partly Cloudy 609.6 m,
Partly Cloudy 3048 m
RPVM 200100Z 18006KT 150V230 9999 SCT020TCU SCT100 31/25 Q1012 RMK A2988 TCU SW W NW

Script developed by  Saratoga-weather.org Adapted for the template by  Weerstation Leuven

You find More weather info also at:

WeatherCloud

Weather Underground

WeatherlinkIP